createdAt,value
2022-10-23T00:01:35.188Z,100.00
2022-10-23T00:04:07.852Z,100.00
2022-10-23T00:06:35.628Z,100.00
2022-10-23T00:09:04.982Z,100.00
2022-10-23T00:11:33.833Z,100.00
2022-10-23T00:14:03.562Z,100.00
2022-10-23T00:16:30.795Z,100.00
2022-10-23T00:18:58.529Z,100.00
2022-10-23T00:21:25.959Z,100.00
2022-10-23T00:23:53.083Z,100.00
2022-10-23T00:26:20.433Z,100.00
2022-10-23T00:28:50.055Z,100.00
2022-10-23T00:31:17.913Z,100.00
2022-10-23T00:33:45.275Z,100.00
2022-10-23T00:36:14.299Z,100.00
2022-10-23T00:38:44.438Z,100.00
2022-10-23T00:41:17.685Z,100.00
2022-10-23T00:44:01.755Z,100.00
2022-10-23T00:46:29.098Z,100.00
2022-10-23T00:48:57.634Z,100.00
2022-10-23T00:51:27.483Z,100.00
2022-10-23T00:54:06.687Z,100.00
2022-10-23T00:56:44.879Z,100.00
2022-10-23T00:59:37.244Z,100.00
2022-10-23T01:02:05.220Z,100.00
2022-10-23T01:04:33.468Z,100.00
2022-10-23T01:07:12.627Z,100.00
2022-10-23T01:09:50.834Z,100.00
2022-10-23T01:12:39.101Z,100.00
2022-10-23T01:15:34.821Z,100.00
2022-10-23T01:18:21.554Z,100.00
2022-10-23T01:20:59.804Z,100.00
2022-10-23T01:23:32.924Z,100.00
2022-10-23T01:26:10.632Z,100.00
2022-10-23T01:28:43.552Z,100.00
2022-10-23T01:31:16.706Z,100.00
2022-10-23T01:33:58.462Z,100.00
2022-10-23T01:36:30.042Z,100.00
2022-10-23T01:41:52.119Z,100.00
2022-10-23T01:44:38.916Z,100.00
2022-10-23T01:47:08.103Z,100.00
2022-10-23T01:49:46.038Z,100.00
2022-10-23T01:52:16.024Z,100.00
2022-10-23T01:54:46.776Z,100.00
2022-10-23T01:57:17.499Z,100.00
2022-10-23T01:59:49.903Z,100.00
2022-10-23T02:02:20.220Z,100.00
2022-10-23T02:05:14.034Z,100.00
2022-10-23T02:07:41.237Z,100.00
2022-10-23T02:10:10.026Z,100.00
2022-10-23T02:13:08.630Z,100.00
2022-10-23T02:15:48.477Z,100.00
2022-10-23T02:18:31.029Z,100.00
2022-10-23T02:21:11.947Z,100.00
2022-10-23T02:24:13.317Z,100.00
2022-10-23T02:26:53.378Z,100.00
2022-10-23T02:29:38.525Z,100.00
2022-10-23T02:32:08.536Z,100.00
2022-10-23T02:34:35.928Z,100.00
2022-10-23T02:37:02.960Z,100.00
2022-10-23T02:39:29.795Z,100.00
2022-10-23T02:42:11.850Z,100.00
2022-10-23T02:45:11.922Z,100.00
2022-10-23T02:48:03.458Z,100.00
2022-10-23T02:50:53.868Z,100.00
2022-10-23T02:53:47.769Z,100.00
2022-10-23T02:56:27.887Z,100.00
2022-10-23T02:58:58.818Z,100.00
2022-10-23T03:01:32.413Z,100.00
2022-10-23T03:04:02.461Z,100.00
2022-10-23T03:06:29.321Z,100.00
2022-10-23T03:09:03.942Z,100.00
2022-10-23T03:11:30.746Z,100.00
2022-10-23T03:13:57.605Z,100.00
2022-10-23T03:16:24.737Z,100.00
2022-10-23T03:18:53.830Z,100.00
2022-10-23T03:21:20.808Z,100.00
2022-10-23T03:23:50.971Z,100.00
2022-10-23T03:26:20.691Z,100.00
2022-10-23T03:28:48.296Z,100.00
2022-10-23T03:31:15.619Z,100.00
2022-10-23T03:33:43.379Z,100.00
2022-10-23T03:36:11.911Z,100.00
2022-10-23T03:38:40.111Z,100.00
2022-10-23T03:41:07.045Z,100.00
2022-10-23T03:43:33.808Z,100.00
2022-10-23T03:46:01.591Z,100.00
2022-10-23T03:48:28.667Z,100.00
2022-10-23T03:50:58.408Z,100.00
2022-10-23T03:53:25.044Z,100.00
2022-10-23T03:55:51.744Z,100.00
2022-10-23T03:58:18.405Z,100.00
2022-10-23T04:00:45.699Z,100.00
2022-10-23T04:03:12.692Z,100.00
2022-10-23T04:05:41.450Z,100.00
2022-10-23T04:08:09.642Z,100.00
2022-10-23T04:10:36.485Z,100.00
2022-10-23T04:13:03.147Z,100.00
2022-10-23T04:15:34.916Z,100.00
2022-10-23T04:18:02.388Z,100.00
2022-10-23T04:20:31.712Z,100.00
2022-10-23T04:23:01.892Z,100.00
2022-10-23T04:25:28.562Z,100.00
2022-10-23T04:27:55.215Z,100.00
2022-10-23T04:30:22.097Z,100.00
2022-10-23T04:32:52.556Z,100.00
2022-10-23T04:35:19.692Z,100.00
2022-10-23T04:37:46.413Z,100.00
2022-10-23T04:40:13.142Z,100.00
2022-10-23T04:42:39.921Z,100.00
2022-10-23T04:45:07.496Z,100.00
2022-10-23T04:47:35.670Z,100.00
2022-10-23T04:50:03.650Z,100.00
2022-10-23T04:52:52.918Z,100.00
2022-10-23T04:55:38.575Z,100.00
2022-10-23T04:58:15.682Z,100.00
2022-10-23T05:00:43.939Z,100.00
2022-10-23T05:03:14.916Z,100.00
2022-10-23T05:05:42.178Z,100.00
2022-10-23T05:08:35.352Z,100.00
2022-10-23T05:11:13.302Z,100.00
2022-10-23T05:13:44.124Z,100.00
2022-10-23T05:16:19.832Z,100.00
2022-10-23T05:18:47.832Z,100.00
2022-10-23T05:21:25.434Z,100.00
2022-10-23T05:23:53.830Z,100.00
2022-10-23T05:26:21.915Z,100.00
2022-10-23T05:28:50.018Z,100.00
2022-10-23T05:31:20.221Z,100.00
2022-10-23T05:33:50.949Z,100.00
2022-10-23T05:36:20.811Z,100.00
2022-10-23T05:38:52.318Z,100.00
2022-10-23T05:41:20.824Z,100.00
2022-10-23T05:43:47.895Z,100.00
2022-10-23T05:46:33.400Z,100.00
2022-10-23T05:49:26.542Z,100.00
2022-10-23T05:52:16.116Z,100.00
2022-10-23T05:55:08.569Z,100.00
2022-10-23T05:58:02.463Z,100.00
2022-10-23T06:00:52.219Z,100.00
2022-10-23T06:03:39.168Z,100.00
2022-10-23T06:06:08.101Z,100.00
2022-10-23T06:08:46.965Z,100.00
2022-10-23T06:11:15.508Z,100.00
2022-10-23T06:13:50.430Z,100.00
2022-10-23T06:16:26.569Z,100.00
2022-10-23T06:18:55.220Z,100.00
2022-10-23T06:21:22.872Z,100.00
2022-10-23T06:23:50.310Z,100.00
2022-10-23T06:26:49.795Z,100.00
2022-10-23T06:29:20.994Z,100.00
2022-10-23T06:31:47.798Z,100.00
2022-10-23T06:34:14.937Z,100.00
2022-10-23T06:36:41.590Z,100.00
2022-10-23T06:39:21.590Z,100.00
2022-10-23T06:42:03.388Z,100.00
2022-10-23T06:44:49.774Z,100.00
2022-10-23T06:47:24.814Z,100.00
2022-10-23T06:50:20.522Z,100.00
2022-10-23T06:52:47.775Z,100.00
2022-10-23T06:55:18.931Z,100.00
2022-10-23T06:57:46.640Z,100.00
2022-10-23T07:00:14.258Z,100.00
2022-10-23T07:02:50.617Z,100.00
2022-10-23T07:05:18.797Z,100.00
2022-10-23T07:07:45.837Z,100.00
2022-10-23T07:10:15.863Z,100.00
2022-10-23T07:12:48.426Z,100.00
2022-10-23T07:15:33.568Z,100.00
2022-10-23T07:18:00.553Z,100.00
2022-10-23T07:20:33.832Z,100.00
2022-10-23T07:23:00.981Z,100.00
2022-10-23T07:25:34.870Z,100.00
2022-10-23T07:28:01.642Z,100.00
2022-10-23T07:30:28.873Z,100.00
2022-10-23T07:32:56.085Z,100.00
2022-10-23T07:35:41.481Z,100.00
2022-10-23T07:38:13.294Z,100.00
2022-10-23T07:40:44.435Z,100.00
2022-10-23T07:43:11.166Z,100.00
2022-10-23T07:45:37.831Z,100.00
2022-10-23T07:48:15.438Z,100.00
2022-10-23T07:51:07.545Z,100.00
2022-10-23T07:53:36.355Z,100.00
2022-10-23T07:56:29.194Z,100.00
2022-10-23T07:59:20.845Z,100.00
2022-10-23T08:01:55.079Z,100.00
2022-10-23T08:04:24.565Z,100.00
2022-10-23T08:06:55.990Z,100.00
2022-10-23T08:09:22.638Z,100.00
2022-10-23T08:11:49.492Z,100.00
2022-10-23T08:14:17.026Z,100.00
2022-10-23T08:16:43.945Z,100.00
2022-10-23T08:19:16.865Z,100.00
2022-10-23T08:21:44.715Z,100.00
2022-10-23T08:24:13.415Z,100.00
2022-10-23T08:26:41.890Z,100.00
2022-10-23T08:29:09.625Z,100.00
2022-10-23T08:31:36.653Z,100.00
2022-10-23T08:34:13.743Z,100.00
2022-10-23T08:36:41.655Z,100.00
2022-10-23T08:39:09.176Z,100.00
2022-10-23T08:41:42.286Z,100.00
2022-10-23T08:44:28.163Z,100.00
2022-10-23T08:46:58.733Z,100.00
2022-10-23T08:49:51.810Z,100.00
2022-10-23T08:52:41.300Z,100.00
2022-10-23T08:55:25.732Z,100.00
2022-10-23T08:58:15.231Z,100.00
2022-10-23T09:00:44.142Z,100.00
2022-10-23T09:03:12.452Z,100.00
2022-10-23T09:05:55.280Z,100.00
2022-10-23T09:08:53.281Z,100.00
2022-10-23T09:11:32.000Z,100.00
2022-10-23T09:14:30.054Z,100.00
2022-10-23T09:17:23.063Z,100.00
2022-10-23T09:19:55.534Z,100.00
2022-10-23T09:22:22.702Z,100.00
2022-10-23T09:24:53.679Z,100.00
2022-10-23T09:27:21.638Z,100.00
2022-10-23T09:29:53.900Z,100.00
2022-10-23T09:32:32.537Z,100.00
2022-10-23T09:34:59.298Z,100.00
2022-10-23T09:37:28.928Z,100.00
2022-10-23T09:40:14.196Z,100.00
2022-10-23T09:42:53.996Z,100.00
2022-10-23T09:45:23.883Z,100.00
2022-10-23T09:48:02.486Z,100.00
2022-10-23T09:50:29.606Z,100.00
2022-10-23T09:52:56.889Z,100.00
2022-10-23T09:55:26.319Z,100.00
2022-10-23T09:57:53.945Z,100.00
2022-10-23T10:00:23.661Z,100.00
2022-10-23T10:03:04.121Z,100.00
2022-10-23T10:05:44.645Z,100.00
2022-10-23T10:08:36.376Z,100.00
2022-10-23T10:11:20.291Z,100.00
2022-10-23T10:13:50.422Z,100.00
2022-10-23T10:16:48.326Z,100.00
2022-10-23T10:19:55.247Z,100.00
2022-10-23T10:22:39.855Z,100.00
2022-10-23T10:25:21.104Z,100.00
2022-10-23T10:28:01.301Z,100.00
2022-10-23T10:30:44.792Z,100.00
2022-10-23T10:33:22.290Z,100.00
2022-10-23T10:36:11.582Z,100.00
2022-10-23T10:38:43.355Z,100.00
2022-10-23T10:41:47.245Z,100.00
2022-10-23T10:44:19.548Z,100.00
2022-10-23T10:47:04.326Z,100.00
2022-10-23T10:49:38.126Z,100.00
2022-10-23T10:52:30.454Z,100.00
2022-10-23T10:55:00.060Z,100.00
2022-10-23T10:57:48.096Z,100.00
2022-10-23T11:00:20.946Z,100.00
2022-10-23T11:02:51.469Z,100.00
2022-10-23T11:05:32.789Z,100.00
2022-10-23T11:08:21.761Z,100.00
2022-10-23T11:10:53.622Z,100.00
2022-10-23T11:13:33.259Z,100.00
2022-10-23T11:16:08.081Z,100.00
2022-10-23T11:18:35.883Z,100.00
2022-10-23T11:21:08.376Z,100.00
2022-10-23T11:23:53.990Z,100.00
2022-10-23T11:26:35.529Z,100.00
2022-10-23T11:29:43.313Z,100.00
2022-10-23T11:32:27.399Z,100.00
2022-10-23T11:35:15.623Z,100.00
2022-10-23T11:37:42.557Z,100.00
2022-10-23T11:40:09.258Z,100.00
2022-10-23T11:42:39.201Z,100.00
2022-10-23T11:45:27.326Z,100.00
2022-10-23T11:48:22.151Z,100.00
2022-10-23T11:50:53.132Z,100.00
2022-10-23T11:53:31.702Z,100.00
2022-10-23T11:56:25.355Z,100.00
2022-10-23T11:58:59.278Z,100.00
2022-10-23T12:01:29.354Z,100.00
2022-10-23T12:04:05.567Z,100.00
2022-10-23T12:06:39.941Z,100.00
2022-10-23T12:09:23.013Z,100.00
2022-10-23T12:12:13.107Z,100.00
2022-10-23T12:14:42.280Z,100.00
2022-10-23T12:17:24.154Z,98.97
2022-10-23T12:20:08.396Z,93.10
2022-10-23T12:22:59.221Z,89.31
2022-10-23T12:26:00.712Z,86.47
2022-10-23T12:28:27.314Z,80.26
2022-10-23T12:31:06.277Z,77.52
2022-10-23T12:33:38.647Z,76.30
2022-10-23T12:36:14.404Z,71.19
2022-10-23T12:38:46.335Z,70.98
2022-10-23T12:41:14.986Z,73.76
2022-10-23T12:43:50.127Z,79.55
2022-10-23T12:46:19.897Z,77.87
2022-10-23T12:48:48.958Z,74.11
2022-10-23T12:51:23.590Z,75.75
2022-10-23T12:53:50.630Z,78.34
2022-10-23T12:56:17.931Z,83.11
2022-10-23T12:58:51.541Z,89.68
2022-10-23T13:01:28.389Z,96.04
2022-10-23T13:04:22.770Z,99.93
2022-10-23T13:06:50.697Z,100.00
2022-10-23T13:09:41.553Z,100.00
2022-10-23T13:12:31.429Z,100.00
2022-10-23T13:15:15.538Z,98.48
2022-10-23T13:18:03.533Z,95.09
2022-10-23T13:20:34.625Z,94.16
2022-10-23T13:23:07.355Z,91.35
2022-10-23T13:25:36.146Z,90.46
2022-10-23T13:28:26.821Z,92.35
2022-10-23T13:31:22.477Z,92.78
2022-10-23T13:34:04.006Z,92.14
2022-10-23T13:36:35.553Z,88.57
2022-10-23T13:39:13.793Z,89.58
2022-10-23T13:41:43.655Z,89.11
2022-10-23T13:44:16.834Z,89.68
2022-10-23T13:46:43.719Z,89.15
2022-10-23T13:49:10.651Z,89.17
2022-10-23T13:51:55.965Z,88.79
2022-10-23T13:54:24.972Z,88.62
2022-10-23T13:56:53.068Z,89.91
2022-10-23T13:59:20.061Z,90.31
2022-10-23T14:01:48.153Z,87.78
2022-10-23T14:04:16.742Z,87.51
2022-10-23T14:06:43.765Z,83.41
2022-10-23T14:09:14.000Z,81.33
2022-10-23T14:11:41.010Z,83.31
2022-10-23T14:14:08.294Z,84.28
2022-10-23T14:16:35.385Z,87.61
2022-10-23T14:19:02.364Z,89.10
2022-10-23T14:21:29.490Z,92.71
2022-10-23T14:23:56.791Z,97.51
2022-10-23T14:26:27.078Z,99.99
2022-10-23T14:28:55.303Z,100.00
2022-10-23T14:31:22.673Z,100.00
2022-10-23T14:33:55.393Z,100.00
2022-10-23T14:36:22.927Z,100.00
2022-10-23T14:39:00.075Z,100.00
2022-10-23T14:41:26.734Z,100.00
2022-10-23T14:43:53.776Z,100.00
2022-10-23T14:46:23.195Z,100.00
2022-10-23T14:48:56.431Z,100.00
2022-10-23T14:51:27.789Z,100.00
2022-10-23T14:54:01.246Z,100.00
2022-10-23T14:56:30.660Z,100.00
2022-10-23T14:59:02.092Z,100.00
2022-10-23T15:01:35.333Z,100.00
2022-10-23T15:04:03.273Z,100.00
2022-10-23T15:06:30.694Z,100.00
2022-10-23T15:08:57.496Z,100.00
2022-10-23T15:11:24.998Z,100.00
2022-10-23T15:13:54.183Z,100.00
2022-10-23T15:16:22.605Z,100.00
2022-10-23T15:18:50.461Z,100.00
2022-10-23T15:21:18.076Z,100.00
2022-10-23T15:23:45.908Z,100.00
2022-10-23T15:26:19.677Z,100.00
2022-10-23T15:28:47.709Z,100.00
2022-10-23T15:31:31.324Z,100.00
2022-10-23T15:33:59.276Z,100.00
2022-10-23T15:36:26.559Z,100.00
2022-10-23T15:38:53.289Z,100.00
2022-10-23T15:41:39.886Z,100.00
2022-10-23T15:44:08.189Z,100.00
2022-10-23T15:46:35.385Z,100.00
2022-10-23T15:49:02.390Z,100.00
2022-10-23T15:51:29.440Z,100.00
2022-10-23T15:53:56.469Z,100.00
2022-10-23T15:56:24.231Z,100.00
2022-10-23T15:58:51.481Z,100.00
2022-10-23T16:01:18.278Z,100.00
2022-10-23T16:03:45.468Z,100.00
2022-10-23T16:06:14.587Z,100.00
2022-10-23T16:08:43.284Z,100.00
2022-10-23T16:11:19.047Z,100.00
2022-10-23T16:13:45.852Z,100.00
2022-10-23T16:16:13.121Z,100.00
2022-10-23T16:18:40.161Z,100.00
2022-10-23T16:21:07.654Z,100.00
2022-10-23T16:23:34.365Z,100.00
2022-10-23T16:26:04.319Z,100.00
2022-10-23T16:28:31.652Z,100.00
2022-10-23T16:30:59.091Z,100.00
2022-10-23T16:33:26.234Z,100.00
2022-10-23T16:35:52.946Z,100.00
2022-10-23T16:38:21.219Z,100.00
2022-10-23T16:40:52.525Z,100.00
2022-10-23T16:43:38.065Z,100.00
2022-10-23T16:46:27.113Z,100.00
2022-10-23T16:48:53.762Z,100.00
2022-10-23T16:51:23.882Z,100.00
2022-10-23T16:53:51.604Z,100.00
2022-10-23T16:56:21.636Z,100.00
2022-10-23T16:58:48.519Z,100.00
2022-10-23T17:01:20.963Z,100.00
2022-10-23T17:03:49.729Z,100.00
2022-10-23T17:06:19.710Z,100.00
2022-10-23T17:08:46.692Z,100.00
2022-10-23T17:11:16.667Z,100.00
2022-10-23T17:13:55.190Z,100.00
2022-10-23T17:16:37.617Z,100.00
2022-10-23T17:19:15.816Z,100.00
2022-10-23T17:21:47.878Z,100.00
2022-10-23T17:24:14.581Z,100.00
2022-10-23T17:26:42.092Z,100.00
2022-10-23T17:29:10.468Z,100.00
2022-10-23T17:31:39.777Z,100.00
2022-10-23T17:34:09.978Z,100.00
2022-10-23T17:36:39.831Z,100.00
2022-10-23T17:39:08.069Z,100.00
2022-10-23T17:41:35.351Z,100.00
2022-10-23T17:44:02.374Z,100.00
2022-10-23T17:46:29.346Z,100.00
2022-10-23T17:48:58.544Z,100.00
2022-10-23T17:51:27.161Z,100.00
2022-10-23T17:53:56.110Z,100.00
2022-10-23T17:56:25.075Z,100.00
2022-10-23T17:58:54.432Z,100.00
2022-10-23T18:01:24.529Z,100.00
2022-10-23T18:03:56.424Z,100.00
2022-10-23T18:06:28.896Z,100.00
2022-10-23T18:08:56.611Z,100.00
2022-10-23T18:11:25.899Z,100.00
2022-10-23T18:13:54.043Z,100.00
2022-10-23T18:16:20.932Z,100.00
2022-10-23T18:18:48.267Z,100.00
2022-10-23T18:21:16.275Z,100.00
2022-10-23T18:23:43.646Z,100.00
2022-10-23T18:26:19.367Z,100.00
2022-10-23T18:28:47.918Z,100.00
2022-10-23T18:31:16.094Z,100.00
2022-10-23T18:33:43.385Z,100.00
2022-10-23T18:36:20.763Z,100.00
2022-10-23T18:38:48.127Z,100.00
2022-10-23T18:41:15.174Z,100.00
2022-10-23T18:43:44.168Z,100.00
2022-10-23T18:46:12.769Z,100.00
2022-10-23T18:48:39.929Z,100.00
2022-10-23T18:51:29.188Z,100.00
2022-10-23T18:53:56.990Z,100.00
2022-10-23T18:56:26.121Z,100.00
2022-10-23T18:58:58.512Z,100.00
2022-10-23T19:01:27.248Z,100.00
2022-10-23T19:06:28.564Z,100.00
2022-10-23T19:08:55.566Z,100.00
2022-10-23T19:11:24.409Z,100.00
2022-10-23T19:13:51.310Z,100.00
2022-10-23T19:16:30.338Z,100.00
2022-10-23T19:19:12.588Z,100.00
2022-10-23T19:21:40.649Z,100.00
2022-10-23T19:24:12.972Z,100.00
2022-10-23T19:26:41.620Z,100.00
2022-10-23T19:29:11.310Z,100.00
2022-10-23T19:31:42.472Z,100.00
2022-10-23T19:34:09.076Z,100.00
2022-10-23T19:36:35.926Z,100.00
2022-10-23T19:39:02.639Z,100.00
2022-10-23T19:41:30.552Z,100.00
2022-10-23T19:43:57.294Z,100.00
2022-10-23T19:46:23.906Z,100.00
2022-10-23T19:48:50.589Z,100.00
2022-10-23T19:51:17.229Z,100.00
2022-10-23T19:53:43.909Z,100.00
2022-10-23T19:56:12.359Z,100.00
2022-10-23T19:58:40.919Z,100.00
2022-10-23T20:01:19.070Z,100.00
2022-10-23T20:03:48.196Z,100.00
2022-10-23T20:06:19.076Z,100.00
2022-10-23T20:08:45.899Z,100.00
2022-10-23T20:11:27.797Z,100.00
2022-10-23T20:13:56.198Z,100.00
2022-10-23T20:16:32.438Z,100.00
2022-10-23T20:19:01.701Z,100.00
2022-10-23T20:21:29.082Z,100.00
2022-10-23T20:23:57.802Z,100.00
2022-10-23T20:26:24.525Z,100.00
2022-10-23T20:28:54.188Z,100.00
2022-10-23T20:31:22.598Z,100.00
2022-10-23T20:33:49.350Z,100.00
2022-10-23T20:36:21.955Z,100.00
2022-10-23T20:38:48.864Z,100.00
2022-10-23T20:41:15.825Z,100.00
2022-10-23T20:43:42.899Z,100.00
2022-10-23T20:46:10.168Z,100.00
2022-10-23T20:48:38.990Z,100.00
2022-10-23T20:51:08.513Z,100.00
2022-10-23T20:53:37.793Z,100.00
2022-10-23T20:56:09.665Z,100.00
2022-10-23T20:58:36.340Z,100.00
2022-10-23T21:01:09.142Z,100.00
2022-10-23T21:03:37.318Z,100.00
2022-10-23T21:06:14.809Z,100.00
2022-10-23T21:08:42.182Z,100.00
2022-10-23T21:11:14.410Z,100.00
2022-10-23T21:13:43.253Z,100.00
2022-10-23T21:16:23.546Z,100.00
2022-10-23T21:18:51.736Z,100.00
2022-10-23T21:21:20.466Z,100.00
2022-10-23T21:23:49.726Z,100.00
2022-10-23T21:26:18.138Z,100.00
2022-10-23T21:28:55.632Z,100.00
2022-10-23T21:31:28.398Z,100.00
2022-10-23T21:33:55.111Z,100.00
2022-10-23T21:36:23.482Z,100.00
2022-10-23T21:38:53.294Z,100.00
2022-10-23T21:41:25.875Z,100.00
2022-10-23T21:43:58.186Z,100.00
2022-10-23T21:46:25.955Z,100.00
2022-10-23T21:48:52.726Z,100.00
2022-10-23T21:51:19.341Z,100.00
2022-10-23T21:53:46.053Z,100.00
2022-10-23T21:56:26.466Z,100.00
2022-10-23T21:58:53.981Z,100.00
2022-10-23T22:01:20.926Z,100.00
2022-10-23T22:03:48.178Z,100.00
2022-10-23T22:06:21.166Z,100.00
2022-10-23T22:08:48.440Z,100.00
2022-10-23T22:11:15.710Z,100.00
2022-10-23T22:13:43.323Z,100.00
2022-10-23T22:16:11.474Z,100.00
2022-10-23T22:18:38.916Z,100.00
2022-10-23T22:21:12.687Z,100.00
2022-10-23T22:23:39.420Z,100.00
2022-10-23T22:26:17.607Z,100.00
2022-10-23T22:28:44.330Z,100.00
2022-10-23T22:31:16.250Z,100.00
2022-10-23T22:33:43.474Z,100.00
2022-10-23T22:36:10.606Z,100.00
2022-10-23T22:38:38.077Z,100.00
2022-10-23T22:41:05.549Z,100.00
2022-10-23T22:43:32.169Z,100.00
2022-10-23T22:46:12.831Z,100.00
2022-10-23T22:48:39.711Z,100.00
2022-10-23T22:51:09.007Z,100.00
2022-10-23T22:53:36.270Z,100.00
2022-10-23T22:56:08.428Z,100.00
2022-10-23T22:58:35.966Z,100.00
2022-10-23T23:01:09.307Z,100.00
2022-10-23T23:03:37.094Z,100.00
2022-10-23T23:06:05.790Z,100.00
2022-10-23T23:08:33.803Z,100.00
2022-10-23T23:11:00.854Z,100.00
2022-10-23T23:13:27.925Z,100.00
2022-10-23T23:15:54.849Z,100.00
2022-10-23T23:18:22.083Z,100.00
2022-10-23T23:20:48.751Z,100.00
2022-10-23T23:23:16.184Z,100.00
2022-10-23T23:25:49.773Z,100.00
2022-10-23T23:28:19.175Z,100.00
2022-10-23T23:30:47.259Z,100.00
2022-10-23T23:33:15.220Z,100.00
2022-10-23T23:35:44.265Z,100.00
2022-10-23T23:38:12.064Z,100.00
2022-10-23T23:40:39.344Z,100.00
2022-10-23T23:43:06.070Z,100.00
2022-10-23T23:45:32.659Z,100.00
2022-10-23T23:47:59.250Z,100.00
2022-10-23T23:50:27.381Z,100.00
2022-10-23T23:52:54.405Z,100.00
2022-10-23T23:55:21.296Z,100.00
2022-10-23T23:57:48.124Z,100.00
